This is the latest recevied weather packets stored in our database for station/object E27EKO-13. If no packets are shown the sender has not sent any weather packets the latest 10 day(s).
| Time | Temp. | Humidity | Pressure | Rain* | Wind** | Luminosity | Snow |
|---|---|---|---|---|---|---|---|
| 1777852818 | 39.44° C | 59% | 1009 hPa | - | - | 0 W/m² | - |
| 1777852496 | 41.11° C | 56% | 1009 hPa | - | - | 0 W/m² | - |
| 1777852174 | 40° C | 59% | 1008 hPa | - | - | 0 W/m² | - |
| 1777851852 | 38.89° C | 64% | 1008 hPa | - | - | 0 W/m² | - |
| 1777851530 | 37.22° C | 70% | 1008 hPa | - | - | 0 W/m² | - |
| 1777851208 | 35.56° C | 76% | 1008 hPa | - | - | 0 W/m² | - |
| 1777850886 | 34.44° C | 83% | 1008 hPa | - | - | 0 W/m² | - |
| 1777850564 | 33.33° C | 90% | 1008 hPa | - | - | 0 W/m² | - |
| 1777850242 | 31.67° C | 97% | 1008 hPa | - | - | 0 W/m² | - |
| 1777849919 | 31.67° C | 99% | 1008 hPa | - | - | 0 W/m² | - |
| 1777849630 | 31.11° C | 99% | 1008 hPa | - | - | 0 W/m² | - |
| 1777849431 | 31.11° C | 99% | 1008 hPa | - | - | 0 W/m² | - |
| 1777849109 | 31.11° C | 99% | 1008 hPa | - | - | 0 W/m² | - |
| 1777848963 | 30.56° C | 99% | 1008 hPa | - | - | 0 W/m² | - |
| 1777848641 | 30.56° C | 99% | 1008 hPa | - | - | 0 W/m² | - |
| 1777848319 | 30.56° C | 99% | 1008 hPa | - | - | 0 W/m² | - |
| 1777847997 | 31.11° C | 99% | 1008 hPa | - | - | 0 W/m² | - |
| 1777847675 | 30.56° C | 99% | 1008 hPa | - | - | 0 W/m² | - |
| 1777847353 | 31.11° C | 99% | 1008 hPa | - | - | 0 W/m² | - |
| 1777847031 | 31.11° C | 99% | 1008 hPa | - | - | 0 W/m² | - |
| 1777846709 | 31.11° C | 99% | 1008 hPa | - | - | 0 W/m² | - |
| 1777846532 | 31.11° C | 99% | 1008 hPa | - | - | 0 W/m² | - |
| 1777846210 | 31.11° C | 99% | 1008 hPa | - | - | 0 W/m² | - |
| 1777845888 | 31.11° C | 99% | 1008 hPa | - | - | 0 W/m² | - |
| 1777845566 | 31.11° C | 99% | 1008 hPa | - | - | 0 W/m² | - |
* Rain since midnight (hover to see other rain measurements)
** Current wind speed in m/s (hover to see current wind gust speed)